ADDS METAR Data INFO
IDs: Format: Raw Decoded Include TAF

Data at: 0111 UTC 24 Jun 2018

KCOU 240054Z 29003KT 10SM CLR 27/18 A2981 RMK AO2 SLP087 T02670178
KCOU 232354Z 00000KT 10SM CLR 27/17 A2981 RMK AO2 SLP085 T02720167 10289 20250 55002
KCOU 232254Z 29008KT 10SM SCT043 28/17 A2980 RMK AO2 SLP083 T02780172
KCOU 232154Z 29008KT 10SM FEW039 28/17 A2980 RMK AO2 SLP084 T02830172
KCOU 232054Z 25008KT 10SM SCT060 BKN110 27/17 A2981 RMK AO2 SLP087 T02720172 58000
KCOU 231954Z 26007KT 10SM FEW038 OVC060 27/17 A2982 RMK AO2 SLP090 T02720167
KCOU 231854Z 31007KT 10SM OVC049 26/17 A2982 RMK AO2 SLP089 T02610167
KCOU 231756Z 30005KT 10SM FEW031 BKN043 OVC120 25/16 A2981 RMK AO2 T02500161
KCOU 231754Z COR 22007KT 10SM BKN023 BKN120 25/17 A2981 RMK AO2 SLP087 T02500167 10261 20200 56001
KCOU 231705Z 22007KT 10SM BKN023 BKN120 25/17 A2981 RMK AO2 T02500172
KCOU 231654Z COR 22007KT 10SM BKN023 BKN120 24/17 A2981 RMK AO2 SLP089 T02390172
KCOU 231554Z 00000KT 10SM BKN110 23/17 A2981 RMK AO2 SLP086 T02280172
KCOU 231454Z 24003KT 10SM OVC110 22/18 A2982 RMK AO2 SLP089 T02170178 55000
KCOU 231354Z 23003KT 10SM BKN120 21/18 A2981 RMK AO2 SLP090 T02060178
KCOU 231254Z 00000KT 10SM SCT110 21/18 A2981 RMK AO2 SLP087 T02060178
KCOU 231154Z 25004KT 10SM CLR 20/18 A2982 RMK AO2 SLP089 T02000178 10200 20172 50015
KCOU 231054Z AUTO 23006KT 10SM OVC048 19/17 A2982 RMK AO2 SLP092 T01890172
KCOU 230954Z AUTO 00000KT 10SM FEW044 18/17 A2978 RMK AO2 SLP079 T01830172
KCOU 230854Z AUTO 33003KT 10SM OVC045 19/18 A2977 RMK AO2 SLP074 T01940178 57019
KCOU 230754Z AUTO 26005KT 10SM OVC041 19/17 A2980 RMK AO2 SLP086 T01940172
KCOU 230654Z AUTO 25004KT 10SM OVC040 20/17 A2980 RMK AO2 SLP083 T02000172
KCOU 230554Z AUTO 25006KT 10SM OVC038 20/17 A2983 RMK AO2 SLP094 T02000172 10222 20200 402280178 53011
KCOU 230454Z AUTO 26005KT 10SM FEW019 OVC034 20/17 A2982 RMK AO2 SLP093 T02000172
KCOU 230354Z AUTO 00000KT 10SM OVC036 21/17 A2979 RMK AO2 SLP082 T02060172
KCOU 230254Z AUTO 35003KT 10SM OVC035 21/17 A2979 RMK AO2 SLP083 T02060167 53006
KCOU 230154Z 34007KT 10SM OVC034 21/17 A2978 RMK AO2 SLP077 T02060167
KCOU 230054Z 34009KT 10SM BKN021 BKN026 OVC036 21/17 A2977 RMK AO2 SLP075 T02110167
KCOU 222354Z 31008KT 10SM OVC036 22/17 A2978 RMK AO2 SLP077 T02170167 10228 20200 55006
KCOU 222254Z 31007KT 10SM FEW020 BKN029 OVC036 22/17 A2977 RMK AO2 SLP076 T02170167
KCOU 222154Z 28009KT 10SM SCT018 BKN022 OVC046 22/17 A2979 RMK AO2 SLP080 T02170167
KCOU 222054Z 33011KT 10SM SCT016 BKN022 OVC043 22/17 A2980 RMK AO2 SLP083 T02220172 58007
KCOU 221954Z 33012KT 10SM OVC016 21/17 A2981 RMK AO2 SLP088 T02110172
KCOU 221854Z 30011G20KT 10SM BKN017 OVC025 22/17 A2981 RMK AO2 SLP087 T02170172
KCOU 221754Z 30012KT 10SM OVC008 20/17 A2982 RMK AO2 SLP092 T02000172 10211 20189 53010
KCOU 221738Z 30012KT 10SM OVC009 20/18 A2981 RMK AO2 CIG 007V014 T02000178
KCOU 221701Z 30010KT 10SM BKN011 OVC019 21/18 A2981 RMK AO2 T02060178
KCOU 221654Z 30010KT 10SM FEW011 OVC019 21/18 A2980 RMK AO2 SLP087 T02110178
KCOU 221554Z 29009KT 10SM BKN010 BKN022 OVC027 21/18 A2980 RMK AO2 SLP084 T02110183
KCOU 221454Z 30010KT 10SM BKN014 OVC019 21/18 A2979 RMK AO2 SLP080 T02060178 51004
KCOU 221449Z 30009KT 10SM OVC014 21/18 A2979 RMK AO2
KCOU 221405Z 31011KT 10SM BKN009 OVC014 21/18 A2978 RMK AO2 T02060178
KCOU 221354Z 29008KT 10SM OVC012 21/18 A2978 RMK AO2 SLP077 T02060178